Airfield :
LOGIN :

Register | Disclaimer

   EN    FR    IT 

 










Legend :    VFR   Marginal VFR   IFR   Intensive IFR   Very Intensive IFR
Visi :
Ceiling :
>= 8 km
>= 3000ft
5 to 8 km
1000 to 3000 ft
1500m to 5 km
500 to 1000 ft
800 to 1500m
200 to 500 ft
< 800m
< 200 ft
Symbols :   Thunderstorms  Fog  Heavy snow  Heavy precipitations  Wind > 20 kt
SIGMETs :     Misc.  Thunderstorms  Icing  Turbulence  Mountain Waves  Volcanic Ashes






- Airport Elevation : 681 ft
- IATA code : OSL


ENGM - Oslo Gardermoen

CURRENT METAR :
  • 121820Z 06003KT 030V100 9999 DZ BKN004 01/00 Q0998 TEMPO NSW SCT004 BKN006

EXPIRED METARs :
  • 121750Z 03003KT 9999 -RASN SCT004 BKN006 00/00 Q0997 TEMPO BKN004
  • 121720Z VRB02KT 7000 -SN FEW005 BKN007 00/M00 Q0997 TEMPO FEW005 SCT007 BKN012
  • 121650Z VRB02KT 5000 -SN SCT004 BKN007 00/M00 Q0998 TEMPO SCT007 BKN012
  • 121620Z VRB02KT 4700 -SN BR OVC004 00/00 Q0997 TEMPO 6000 OVC006
  • 121550Z VRB02KT 3300 -SN BR OVC003 00/00 Q0997 TEMPO 2500 -SN BR

TAF TAF ENGM
Valid from the 12 at 18:00 until the 13 at 18:00 UTC


1218/1318 15008KT 8000 -RASN SCT004 BKN008
TEMPO 1218/1312 2000 SNRA BR OVC003



MET'MAP, your aeronautical weather chart ! - Copyright ORBIFLY December 2007 - Disclaimer

ORBIFLY MET'MAP TEAM :

Programming & Development : Alexandra Zaïnal
Concept & Development : Baudouin d'Aumeries
Co-Development & Prog : Marc-Olivier Méhu
Technical & hardware support : Manuel Goepfert

Contact : metmap@orbifly.com




SOURCES & CREDITS :

   NOAA